Time;durP1;ratioP1;P1;durP2;ratioP2;P2;SDS_P1;SDS_P2;PMS_P1;PMS_P2;Temp;Humidity;BMP_temperature;BMP_pressure;BME280_temperature;BME280_humidity;BME280_pressure;Samples;Min_cycle;Max_cycle;Signal;HPM_P1;HPM_P2
2024/01/27 00:00:16;;;;;;;32.65;15.18;;;;;;;;;;4975803;28;20034;-75
2024/01/27 00:02:42;;;;;;;32.67;14.68;;;;;;;;;;4960359;28;20148;-76
2024/01/27 00:05:08;;;;;;;37.33;16.07;;;;;;;;;;4956247;28;20019;-75
2024/01/27 00:07:33;;;;;;;34.10;15.38;;;;;;;;;;4937013;28;20296;-75
2024/01/27 00:09:59;;;;;;;37.53;16.13;;;;;;;;;;4957292;28;20059;-73
2024/01/27 00:12:25;;;;;;;38.80;15.45;;;;;;;;;;4944674;28;20032;-74
2024/01/27 00:14:50;;;;;;;36.58;16.95;;;;;;;;;;4947409;28;20027;-74
2024/01/27 00:17:16;;;;;;;35.35;15.85;;;;;;;;;;4942339;28;20494;-76
2024/01/27 00:19:41;;;;;;;33.95;14.70;;;;;;;;;;4939360;28;20035;-75
2024/01/27 00:22:07;;;;;;;32.70;15.30;;;;;;;;;;4952682;28;20075;-75
2024/01/27 00:24:32;;;;;;;36.17;15.93;;;;;;;;;;4944675;29;20079;-75
2024/01/27 00:26:57;;;;;;;36.85;16.08;;;;;;;;;;4952537;28;20039;-77
2024/01/27 00:29:23;;;;;;;36.53;15.30;;;;;;;;;;4938866;28;20031;-77
2024/01/27 00:31:49;;;;;;;38.28;17.38;;;;;;;;;;4945307;28;20062;-76
2024/01/27 00:34:14;;;;;;;40.08;16.33;;;;;;;;;;4940351;29;20030;-75
2024/01/27 00:36:40;;;;;;;39.58;16.38;;;;;;;;;;4955126;28;21032;-76
2024/01/27 00:39:06;;;;;;;38.33;16.75;;;;;;;;;;4952103;28;20598;-76
2024/01/27 00:41:31;;;;;;;36.42;15.10;;;;;;;;;;4938206;28;20027;-76
2024/01/27 00:43:57;;;;;;;37.35;15.50;;;;;;;;;;4952128;28;20023;-76
2024/01/27 00:46:22;;;;;;;32.53;14.60;;;;;;;;;;4948383;28;20027;-75
2024/01/27 00:48:48;;;;;;;37.28;15.38;;;;;;;;;;4953473;28;20031;-75
2024/01/27 00:51:13;;;;;;;36.47;14.97;;;;;;;;;;4943197;29;20023;-76
2024/01/27 00:53:39;;;;;;;41.72;14.40;;;;;;;;;;4941627;28;20340;-75
2024/01/27 00:56:04;;;;;;;36.08;16.60;;;;;;;;;;4944425;28;20023;-76
2024/01/27 00:58:29;;;;;;;42.20;16.25;;;;;;;;;;4940445;28;20501;-76
2024/01/27 01:00:55;;;;;;;42.67;16.25;;;;;;;;;;4934739;28;20039;-75
2024/01/27 01:03:20;;;;;;;37.72;16.17;;;;;;;;;;4941662;29;20025;-77
2024/01/27 01:05:45;;;;;;;36.80;16.85;;;;;;;;;;4939616;28;20028;-75
2024/01/27 01:08:11;;;;;;;33.27;15.83;;;;;;;;;;4955645;28;20508;-75
2024/01/27 01:10:36;;;;;;;41.47;17.10;;;;;;;;;;4944671;28;20277;-75
2024/01/27 01:13:01;;;;;;;38.97;17.20;;;;;;;;;;4954922;28;21188;-75
2024/01/27 01:15:26;;;;;;;41.00;16.33;;;;;;;;;;4940577;28;20277;-75
2024/01/27 01:17:52;;;;;;;42.97;16.80;;;;;;;;;;4939114;28;20110;-75
2024/01/27 01:20:17;;;;;;;39.00;16.40;;;;;;;;;;4944620;28;20050;-75
2024/01/27 01:22:42;;;;;;;43.35;17.67;;;;;;;;;;4941570;28;20090;-74
2024/01/27 01:25:08;;;;;;;44.72;18.33;;;;;;;;;;4946799;28;20058;-76
2024/01/27 01:27:33;;;;;;;41.28;18.10;;;;;;;;;;4940177;28;20401;-75
2024/01/27 01:29:58;;;;;;;45.83;18.70;;;;;;;;;;4950083;28;20393;-76
2024/01/27 01:32:24;;;;;;;49.13;19.38;;;;;;;;;;4942011;28;20042;-75
2024/01/27 01:34:49;;;;;;;46.20;20.98;;;;;;;;;;4946210;28;20042;-76
2024/01/27 01:37:14;;;;;;;43.22;18.95;;;;;;;;;;4943684;28;20038;-75
2024/01/27 01:39:40;;;;;;;46.55;19.25;;;;;;;;;;4939704;29;20462;-76
2024/01/27 01:42:05;;;;;;;47.17;18.80;;;;;;;;;;4943194;29;20043;-75
2024/01/27 01:44:31;;;;;;;43.95;18.63;;;;;;;;;;4939962;28;20035;-75
2024/01/27 01:46:57;;;;;;;43.05;20.77;;;;;;;;;;4957850;28;20086;-76
2024/01/27 01:49:22;;;;;;;45.63;20.10;;;;;;;;;;4942640;29;20020;-76
2024/01/27 01:51:48;;;;;;;52.45;20.65;;;;;;;;;;4943155;28;20456;-76
2024/01/27 01:54:13;;;;;;;50.08;20.65;;;;;;;;;;4943526;28;20027;-76
2024/01/27 01:56:38;;;;;;;52.90;22.50;;;;;;;;;;4944920;28;20083;-76
2024/01/27 01:59:04;;;;;;;50.17;21.42;;;;;;;;;;4959624;28;20382;-75
2024/01/27 02:01:29;;;;;;;50.43;22.60;;;;;;;;;;4943748;29;20047;-76
2024/01/27 02:03:54;;;;;;;54.47;23.88;;;;;;;;;;4942103;28;20288;-76
2024/01/27 02:06:20;;;;;;;54.45;23.70;;;;;;;;;;4942908;29;20056;-76
2024/01/27 02:08:45;;;;;;;51.33;24.02;;;;;;;;;;4943756;29;20054;-76
2024/01/27 02:11:11;;;;;;;48.38;24.02;;;;;;;;;;4943413;29;20039;-76
2024/01/27 02:13:36;;;;;;;49.95;24.73;;;;;;;;;;4943159;28;20681;-76
2024/01/27 02:16:01;;;;;;;54.27;23.87;;;;;;;;;;4943044;28;20031;-75
2024/01/27 02:18:27;;;;;;;50.57;24.07;;;;;;;;;;4944229;28;20274;-76
2024/01/27 02:20:52;;;;;;;57.35;23.80;;;;;;;;;;4944657;29;20795;-76
2024/01/27 02:23:17;;;;;;;51.15;23.45;;;;;;;;;;4942604;28;20688;-75
2024/01/27 02:25:43;;;;;;;50.92;25.33;;;;;;;;;;4958175;28;20506;-76
2024/01/27 02:28:08;;;;;;;62.28;25.95;;;;;;;;;;4943676;28;20416;-75
2024/01/27 02:30:33;;;;;;;56.78;26.10;;;;;;;;;;4939708;29;20386;-76
2024/01/27 02:32:59;;;;;;;60.38;27.23;;;;;;;;;;4942676;28;20043;-77
2024/01/27 02:35:24;;;;;;;60.28;26.05;;;;;;;;;;4943243;29;20035;-76
2024/01/27 02:37:50;;;;;;;73.35;27.60;;;;;;;;;;4942860;28;20064;-76
2024/01/27 02:40:15;;;;;;;61.40;28.17;;;;;;;;;;4939915;28;20509;-76
2024/01/27 02:42:44;;;;;;;66.18;27.00;;;;;;;2.55;nan;100963.69;4942986;28;20046;-75
2024/01/27 02:45:13;;;;;;;61.50;27.37;;;;;;;2.63;nan;100971.50;4957118;28;20023;-75
2024/01/27 02:47:39;;;;;;;64.13;27.33;;;;;;;2.65;nan;100966.97;4941961;28;20038;-75
2024/01/27 02:50:08;;;;;;;61.15;27.83;;;;;;;2.41;nan;100928.72;4943002;28;20028;-75
2024/01/27 02:52:34;;;;;;;63.75;27.85;;;;;;;2.42;nan;100934.72;4944616;29;20390;-76
2024/01/27 02:55:00;;;;;;;66.10;27.42;;;;;;;2.60;nan;100932.84;4940712;28;20019;-75
2024/01/27 02:57:25;;;;;;;64.28;28.10;;;;;;;2.30;nan;100897.84;4960837;28;20098;-77
2024/01/27 02:59:51;;;;;;;65.28;28.42;;;;;;;2.19;nan;100870.34;4966796;28;20562;-77
2024/01/27 03:02:16;;;;;;;68.70;27.30;;;;;;;2.86;nan;100955.31;4961800;28;20022;-77
2024/01/27 03:04:42;;;;;;;60.10;26.42;;;;;;;1.98;nan;100820.63;4961062;28;20031;-76
2024/01/27 03:07:07;;;;;;;69.35;27.88;;;;;;;2.75;nan;100935.63;4962034;28;20034;-77
2024/01/27 03:09:33;;;;;;;61.38;27.00;;;;;;;2.82;nan;100961.81;4961056;28;20038;-76
2024/01/27 03:11:58;;;;;;;64.57;27.42;;;;;;;2.62;nan;100922.28;4960898;28;20042;-76
2024/01/27 03:14:25;;;;;;;65.43;28.35;;;;;;;2.94;nan;100970.91;4961310;28;20031;-75
2024/01/27 03:16:50;;;;;;;58.33;26.23;;;;;;;3.00;nan;100970.28;4962509;28;20033;-75
2024/01/27 03:19:16;;;;;;;55.30;25.40;;;;;;;2.53;nan;100903.25;4961530;28;20031;-75
2024/01/27 03:21:42;;;;;;;69.45;26.25;;;;;;;2.81;nan;100931.56;4968042;28;20034;-75
2024/01/27 03:24:07;;;;;;;61.35;26.05;;;;;;;2.66;nan;100901.00;4976584;28;20555;-75
2024/01/27 03:26:33;;;;;;;58.83;25.50;;;;;;;2.82;nan;100925.38;4959433;28;20043;-76
2024/01/27 03:28:58;;;;;;;60.25;24.45;;;;;;;2.98;nan;100962.63;4958469;28;20457;-75
2024/01/27 03:31:29;;;;;;;55.28;23.50;;;;;;;2.74;nan;100919.22;4962572;28;20027;-75
2024/01/27 03:33:56;;;;;;;60.95;23.20;;;;;;;2.67;nan;100897.41;4961138;28;20023;-76
2024/01/27 03:36:22;;;;;;;54.42;23.30;;;;;;;3.15;nan;100967.84;4962827;28;20035;-75
2024/01/27 03:38:47;;;;;;;48.45;19.40;;;;;;;2.87;nan;100915.31;4962968;28;20031;-75
2024/01/27 03:41:12;;;;;;;47.20;18.80;;;;;;;3.14;nan;100956.66;4963331;28;20035;-75
2024/01/27 03:43:38;;;;;;;41.25;18.75;;;;;;;2.65;nan;100882.94;4959912;28;20602;-76
2024/01/27 03:46:05;;;;;;;43.65;17.83;;;;;;;2.96;nan;100912.56;4960005;28;20053;-77
2024/01/27 03:48:30;;;;;;;48.05;17.55;;;;;;;3.02;nan;100916.31;4960489;28;20118;-76
2024/01/27 03:50:56;;;;;;;43.78;17.40;;;;;;;3.33;nan;100965.91;4959955;28;20130;-75
2024/01/27 03:53:21;;;;;;;34.15;13.88;;;;;;;2.74;nan;100863.78;4960775;28;20408;-76
2024/01/27 03:55:47;;;;;;;32.22;14.20;;;;;;;3.10;nan;100907.69;4963167;28;20038;-77
2024/01/27 03:58:12;;;;;;;28.40;11.32;;;;;;;3.31;nan;100922.81;4970319;28;20058;-75
2024/01/27 04:00:38;;;;;;;22.20;9.98;;;;;;;3.24;nan;100899.22;4982117;28;20038;-75
2024/01/27 04:03:03;;;;;;;23.40;9.77;;;;;;;3.54;nan;100939.34;4980036;28;20403;-76
2024/01/27 04:05:30;;;;;;;20.40;8.60;;;;;;;3.66;nan;100960.66;4978796;28;20063;-76
2024/01/27 04:07:55;;;;;;;17.38;8.10;;;;;;;3.59;nan;100944.06;4970324;28;20061;-75
2024/01/27 04:10:23;;;;;;;14.98;6.85;;;;;;;3.78;nan;100975.00;4984082;28;20034;-74
2024/01/27 04:12:48;;;;;;;17.05;6.82;;;;;;;3.28;nan;100913.53;4986487;28;20069;-76
2024/01/27 04:15:14;;;;;;;10.93;5.13;;;;;;;3.38;nan;100910.75;5001033;28;20022;-75
2024/01/27 04:17:40;;;;;;;12.27;4.90;;;;;;;3.51;nan;100911.06;4982559;28;20085;-75
2024/01/27 04:20:07;;;;;;;10.07;4.20;;;;;;;4.12;nan;101002.59;4987880;28;20032;-76
2024/01/27 04:22:33;;;;;;;9.93;4.10;;;;;;;4.02;nan;100986.31;4980037;28;20030;-74
2024/01/27 04:24:59;;;;;;;8.35;3.70;;;;;;;3.98;nan;100974.63;4968553;28;20030;-75
2024/01/27 04:27:24;;;;;;;6.85;3.35;;;;;;;4.33;nan;101024.66;4980586;28;20027;-76
2024/01/27 04:29:50;;;;;;;6.65;3.10;;;;;;;4.20;nan;101012.16;4966374;28;20092;-76
2024/01/27 04:32:15;;;;;;;6.85;3.22;;;;;;;3.82;nan;100944.19;4980060;28;20048;-76
2024/01/27 04:34:41;;;;;;;7.93;2.90;;;;;;;4.23;nan;100996.19;4978119;28;20387;-76
2024/01/27 04:37:06;;;;;;;5.35;2.90;;;;;;;3.96;nan;100966.94;4981093;28;20022;-75
2024/01/27 04:39:32;;;;;;;5.10;2.70;;;;;;;3.77;nan;100933.47;4980232;28;20032;-75
2024/01/27 04:41:57;;;;;;;5.43;2.70;;;;;;;4.34;nan;101010.66;4978397;28;20396;-76
2024/01/27 04:44:23;;;;;;;4.15;2.88;;;;;;;4.32;nan;101018.63;4978971;28;20036;-76
2024/01/27 04:46:48;;;;;;;6.35;2.88;;;;;;;4.12;nan;100973.91;4973867;28;20034;-74
2024/01/27 04:49:17;;;;;;;5.18;2.80;;;;;;;4.43;nan;101033.09;4981052;28;20169;-74
2024/01/27 04:51:42;;;;;;;6.25;2.50;;;;;;;4.56;nan;101059.47;4971317;28;20089;-75
2024/01/27 04:54:08;;;;;;;4.38;2.72;;;;;;;4.21;nan;100992.94;4978532;28;20476;-74
2024/01/27 04:56:34;;;;;;;6.70;2.20;;;;;;;4.48;nan;101044.66;4980579;28;20141;-75
2024/01/27 04:58:59;;;;;;;3.38;2.50;;;;;;;4.65;nan;101081.13;4983103;28;20173;-74
2024/01/27 05:01:24;;;;;;;4.18;2.53;;;;;;;4.55;nan;101063.06;4970736;28;20074;-74
2024/01/27 05:03:50;;;;;;;7.55;2.70;;;;;;;4.51;nan;101076.59;4978199;28;20144;-75
2024/01/27 05:06:16;;;;;;;4.85;2.70;;;;;;;4.62;nan;101091.88;4966224;28;20113;-74
2024/01/27 05:08:41;;;;;;;6.47;3.08;;;;;;;4.65;nan;101125.47;4981703;28;20077;-75
2024/01/27 05:11:07;;;;;;;7.95;3.85;;;;;;;4.50;nan;101095.81;4979200;28;20034;-74
2024/01/27 05:13:33;;;;;;;7.15;2.50;;;;;;;4.61;nan;101129.38;4981067;28;20033;-75
2024/01/27 05:15:58;;;;;;;5.15;2.75;;;;;;;4.48;nan;101117.69;4980466;28;20053;-74
2024/01/27 05:18:23;;;;;;;6.13;2.70;;;;;;;4.52;nan;101127.78;4979943;28;20065;-73
2024/01/27 05:20:49;;;;;;;5.82;2.70;;;;;;;4.44;nan;101124.22;4981082;28;20061;-74
2024/01/27 05:23:14;;;;;;;6.32;2.63;;;;;;;4.43;nan;101140.84;4979197;28;20026;-73
2024/01/27 05:25:40;;;;;;;5.55;2.65;;;;;;;4.43;nan;101155.66;4975224;28;20035;-73
2024/01/27 05:28:05;;;;;;;9.52;3.03;;;;;;;4.40;nan;101167.22;4975747;28;20022;-76
2024/01/27 05:30:31;;;;;;;6.40;2.70;;;;;;;4.31;nan;101173.47;4980231;28;20113;-76
2024/01/27 05:32:56;;;;;;;4.00;2.72;;;;;;;4.30;nan;101182.25;4982117;28;20380;-76
2024/01/27 05:35:22;;;;;;;5.30;2.65;;;;;;;4.17;nan;101168.91;4963920;28;20065;-76
2024/01/27 05:37:47;;;;;;;5.07;2.60;;;;;;;4.07;nan;101163.03;4980010;28;20030;-76
2024/01/27 05:40:13;;;;;;;6.28;3.05;;;;;;;4.33;nan;101209.78;4975949;28;20422;-75
2024/01/27 05:42:40;;;;;;;5.15;2.88;;;;;;;4.16;nan;101182.91;4978008;28;20022;-76
2024/01/27 05:45:06;;;;;;;3.72;2.65;;;;;;;4.04;nan;101192.84;4978235;28;20455;-75
2024/01/27 05:47:32;;;;;;;4.28;2.90;;;;;;;4.17;nan;101214.03;4977314;28;20026;-75
2024/01/27 05:49:59;;;;;;;4.65;2.33;;;;;;;4.01;nan;101185.34;4965959;28;20054;-75
2024/01/27 05:52:25;;;;;;;6.88;2.90;;;;;;;4.21;nan;101224.94;4979104;28;20027;-74
2024/01/27 05:54:51;;;;;;;4.30;2.45;;;;;;;4.24;nan;101240.28;4978530;28;20488;-74
2024/01/27 05:57:17;;;;;;;5.25;2.90;;;;;;;4.21;nan;101236.19;4983026;28;20458;-74
2024/01/27 05:59:42;;;;;;;4.43;2.95;;;;;;;4.23;nan;101236.00;4968234;28;20080;-74
2024/01/27 06:02:08;;;;;;;5.35;3.25;;;;;;;4.34;nan;101264.38;4968023;28;20030;-74
2024/01/27 06:04:34;;;;;;;6.80;3.05;;;;;;;4.35;nan;101258.19;4981279;28;20077;-75
2024/01/27 06:07:00;;;;;;;7.13;3.40;;;;;;;4.26;nan;101252.16;4986705;28;20030;-75
2024/01/27 06:09:25;;;;;;;7.47;3.33;;;;;;;4.39;nan;101267.31;4983895;28;20037;-75
2024/01/27 06:11:51;;;;;;;10.38;3.47;;;;;;;4.28;nan;101251.16;4973782;28;20031;-74
2024/01/27 06:14:16;;;;;;;6.75;2.80;;;;;;;4.34;nan;101267.00;4985228;28;20018;-74
2024/01/27 06:16:41;;;;;;;6.75;2.92;;;;;;;4.33;nan;101275.78;4983489;28;20057;-75
2024/01/27 06:19:07;;;;;;;5.32;2.90;;;;;;;4.37;nan;101278.88;4983187;28;20754;-74
2024/01/27 06:21:32;;;;;;;4.93;2.92;;;;;;;4.39;nan;101282.16;4981743;28;20030;-74
2024/01/27 06:23:58;;;;;;;6.47;2.97;;;;;;;4.42;nan;101293.06;4962431;28;20031;-73
2024/01/27 06:26:23;;;;;;;4.97;2.58;;;;;;;4.28;nan;101282.47;4977825;28;20041;-73
2024/01/27 06:28:49;;;;;;;7.13;2.35;;;;;;;4.41;nan;101293.25;4982259;28;20027;-74
2024/01/27 06:31:16;;;;;;;5.82;2.50;;;;;;;4.35;nan;101297.28;4980351;28;20037;-73
2024/01/27 06:33:41;;;;;;;3.70;2.30;;;;;;;4.33;nan;101294.03;4980851;28;20042;-74
2024/01/27 06:36:09;;;;;;;6.18;2.80;;;;;;;4.24;nan;101287.19;4970610;28;20061;-75
2024/01/27 06:38:37;;;;;;;5.22;2.08;;;;;;;4.34;nan;101305.28;4979106;28;20110;-75
2024/01/27 06:41:03;;;;;;;5.05;1.90;;;;;;;4.15;nan;101286.34;4986638;28;20021;-74
2024/01/27 06:43:29;;;;;;;3.03;1.88;;;;;;;4.21;nan;101306.59;4971140;28;20030;-73
2024/01/27 06:45:56;;;;;;;3.95;1.77;;;;;;;4.14;nan;101300.38;4981708;28;20838;-74
2024/01/27 06:48:24;;;;;;;3.00;2.13;;;;;;;4.24;nan;101315.88;4982335;28;20026;-74
2024/01/27 06:50:50;;;;;;;5.40;2.05;;;;;;;4.32;nan;101338.53;4981086;28;20041;-73
2024/01/27 06:53:15;;;;;;;4.68;1.90;;;;;;;4.25;nan;101326.13;4972471;28;20034;-74
2024/01/27 06:55:41;;;;;;;9.52;2.20;;;;;;;4.03;nan;101304.09;4983754;28;20435;-76
2024/01/27 06:58:06;;;;;;;9.05;2.25;;;;;;;3.94;nan;101297.22;4988827;28;20100;-76
2024/01/27 07:00:32;;;;;;;5.88;2.22;;;;;;;4.14;nan;101334.25;4968785;28;20038;-76
2024/01/27 07:03:00;;;;;;;3.78;1.80;;;;;;;3.69;nan;101275.50;4980433;28;20129;-75
2024/01/27 07:05:26;;;;;;;5.20;1.98;;;;;;;4.04;nan;101339.59;4969713;28;20072;-75
2024/01/27 07:07:51;;;;;;;4.25;2.03;;;;;;;3.83;nan;101305.31;4979658;28;20066;-75
2024/01/27 07:10:16;;;;;;;7.50;2.20;;;;;;;4.19;nan;101363.28;4979636;28;20039;-75
2024/01/27 07:12:42;;;;;;;5.03;2.03;;;;;;;3.80;nan;101305.66;4982684;28;20027;-75
2024/01/27 07:15:08;;;;;;;3.45;2.00;;;;;;;3.80;nan;101300.44;4982484;28;20034;-74
2024/01/27 07:17:33;;;;;;;3.65;2.10;;;;;;;3.46;nan;101262.22;4981571;28;20392;-74
2024/01/27 07:19:59;;;;;;;4.13;2.28;;;;;;;3.51;nan;101293.81;4980826;28;20077;-76
2024/01/27 07:22:24;;;;;;;4.00;1.90;;;;;;;4.02;nan;101358.97;4983397;28;20034;-76
2024/01/27 07:24:51;;;;;;;3.00;1.70;;;;;;;3.84;nan;101323.41;4979466;28;20606;-76
2024/01/27 07:27:17;;;;;;;4.15;1.67;;;;;;;3.56;nan;101281.13;4978248;28;20026;-73
2024/01/27 07:29:42;;;;;;;2.42;1.55;;;;;;;3.74;nan;101330.53;4979474;28;20015;-75
2024/01/27 07:32:13;;;;;;;5.40;2.70;;;;;;;3.68;nan;101317.31;4982544;28;20385;-75
2024/01/27 07:34:41;;;;;;;9.70;1.83;;;;;;;3.44;nan;101308.44;4982490;28;20376;-76
2024/01/27 07:37:08;;;;;;;6.65;1.83;;;;;;;3.90;nan;101399.31;4983593;28;20035;-73
2024/01/27 07:39:33;;;;;;;4.88;1.60;;;;;;;3.93;nan;101422.47;4982322;28;20702;-75
2024/01/27 07:41:59;;;;;;;5.28;1.67;;;;;;;3.78;nan;101406.59;4980311;28;20030;-75
2024/01/27 07:44:24;;;;;;;6.13;2.08;;;;;;;3.73;nan;101404.44;4982191;28;20049;-75
2024/01/27 07:46:50;;;;;;;7.55;2.38;;;;;;;3.40;nan;101356.59;4964455;28;20093;-76
2024/01/27 07:49:15;;;;;;;4.80;2.40;;;;;;;3.62;nan;101394.31;4981941;28;20034;-75
2024/01/27 07:51:41;;;;;;;4.38;1.88;;;;;;;3.56;nan;101403.53;4984052;28;20038;-74
2024/01/27 07:54:06;;;;;;;4.63;2.33;;;;;;;3.72;nan;101415.03;4984379;28;20036;-74
2024/01/27 07:56:32;;;;;;;6.20;2.15;;;;;;;3.62;nan;101410.75;4979592;28;20085;-73
2024/01/27 07:58:58;;;;;;;12.70;4.88;;;;;;;3.70;nan;101424.78;4966559;28;20511;-74
2024/01/27 08:01:23;;;;;;;7.25;3.58;;;;;;;3.83;nan;101436.44;4964284;28;20121;-76
2024/01/27 08:03:49;;;;;;;3.80;2.42;;;;;;;3.93;nan;101445.94;4979667;28;20142;-77
2024/01/27 08:06:19;;;;;;;4.95;2.30;;;;;;;3.92;nan;101449.50;4979299;28;20498;-75
2024/01/27 08:08:46;;;;;;;6.13;2.13;;;;;;;3.97;nan;101450.66;4983716;28;20034;-77
2024/01/27 08:11:12;;;;;;;4.32;1.90;;;;;;;4.09;nan;101477.25;4982001;28;20129;-75
2024/01/27 08:13:38;;;;;;;5.25;1.92;;;;;;;3.96;nan;101454.22;4981407;28;20423;-75
2024/01/27 08:16:05;;;;;;;3.28;1.45;;;;;;;3.90;nan;101441.81;4984697;28;20041;-76
2024/01/27 08:18:30;;;;;;;3.55;1.70;;;;;;;3.99;nan;101458.31;4993449;28;20526;-75
2024/01/27 08:20:56;;;;;;;3.65;2.00;;;;;;;4.11;nan;101482.31;4994786;28;20026;-76
2024/01/27 08:23:21;;;;;;;7.15;1.73;;;;;;;4.05;nan;101495.00;4994869;28;20105;-76
2024/01/27 08:25:51;;;;;;;4.45;1.90;;;;;;;4.09;nan;101497.28;4994976;28;20045;-73
2024/01/27 08:28:17;;;;;;;3.63;1.88;;;;;;;4.06;nan;101495.81;4977266;28;20094;-75
2024/01/27 08:30:42;;;;;;;9.25;2.40;;;;;;;4.03;nan;101483.91;4989188;28;20475;-73
2024/01/27 08:33:08;;;;;;;8.70;2.53;;;;;;;4.16;nan;101508.75;4983225;28;20037;-74
2024/01/27 08:35:33;;;;;;;4.55;2.47;;;;;;;4.11;nan;101511.00;4982763;28;20030;-75
2024/01/27 08:37:58;;;;;;;5.20;2.58;;;;;;;4.19;nan;101526.66;4981396;28;20038;-76
2024/01/27 08:40:24;;;;;;;5.20;2.20;;;;;;;4.21;nan;101537.75;4981778;28;20037;-76
2024/01/27 08:42:49;;;;;;;3.83;1.70;;;;;;;4.25;nan;101546.91;4979342;28;20030;-74
2024/01/27 08:45:15;;;;;;;5.95;2.13;;;;;;;3.96;nan;101497.72;4979132;28;20033;-76
2024/01/27 08:47:40;;;;;;;5.43;1.90;;;;;;;4.20;nan;101539.56;4980568;28;20129;-73
2024/01/27 08:50:06;;;;;;;4.10;1.70;;;;;;;4.18;nan;101538.88;4979727;28;20030;-74
2024/01/27 08:52:32;;;;;;;5.90;2.65;;;;;;;4.31;nan;101556.75;4978579;28;20033;-72
2024/01/27 08:54:57;;;;;;;7.30;2.40;;;;;;;4.26;nan;101548.53;4977706;28;20014;-73
2024/01/27 08:57:23;;;;;;;6.30;2.30;;;;;;;4.31;nan;101548.91;4975913;28;20058;-74
2024/01/27 08:59:48;;;;;;;6.03;2.10;;;;;;;4.31;nan;101542.88;4978127;28;20767;-74
2024/01/27 09:02:14;;;;;;;5.05;2.22;;;;;;;4.37;nan;101553.50;4979252;28;20026;-74
2024/01/27 09:04:39;;;;;;;4.32;1.80;;;;;;;4.44;nan;101561.53;4976538;28;20023;-74
2024/01/27 09:07:05;;;;;;;7.95;2.20;;;;;;;4.40;nan;101555.78;4975324;28;20050;-72
2024/01/27 09:09:30;;;;;;;5.13;1.70;;;;;;;4.38;nan;101541.28;4975406;28;20054;-72
2024/01/27 09:11:55;;;;;;;5.65;1.80;;;;;;;4.49;nan;101561.88;4980256;28;20036;-74
2024/01/27 09:14:21;;;;;;;4.70;1.42;;;;;;;4.57;nan;101561.06;4962594;28;20528;-74
2024/01/27 09:16:47;;;;;;;3.22;1.67;;;;;;;4.42;nan;101530.38;4965140;28;20410;-74
2024/01/27 09:19:12;;;;;;;9.32;1.88;;;;;;;4.64;nan;101564.69;4976512;28;20114;-75
2024/01/27 09:21:37;;;;;;;5.22;1.65;;;;;;;4.67;nan;101567.81;4961202;28;20021;-74
2024/01/27 09:24:03;;;;;;;4.03;1.70;;;;;;;4.79;nan;101577.97;4968895;28;20080;-73
2024/01/27 09:26:29;;;;;;;4.50;1.40;;;;;;;4.79;nan;101576.19;4976850;28;20034;-76
2024/01/27 09:28:55;;;;;;;6.20;2.15;;;;;;;4.70;nan;101553.66;4977711;28;20653;-74
2024/01/27 09:31:22;;;;;;;6.20;1.63;;;;;;;4.89;nan;101576.88;4977410;28;20037;-73
2024/01/27 09:33:53;;;;;;;7.22;1.75;;;;;;;4.84;nan;101557.44;4975899;28;20025;-74
2024/01/27 09:36:20;;;;;;;7.65;1.60;;;;;;;4.93;nan;101568.72;4978993;28;20041;-74
2024/01/27 09:38:46;;;;;;;8.02;1.88;;;;;;;4.97;nan;101575.25;4979273;28;20108;-74
2024/01/27 09:41:13;;;;;;;8.35;1.90;;;;;;;4.95;nan;101564.97;4980224;28;20053;-74
2024/01/27 09:43:44;;;;;;;6.97;1.90;;;;;;;5.05;nan;101576.13;4981675;28;20030;-73
2024/01/27 09:46:11;;;;;;;4.18;1.52;;;;;;;5.08;nan;101548.88;4982208;28;20027;-73
2024/01/27 09:48:37;;;;;;;4.95;1.42;;;;;;;5.19;nan;101550.34;4982172;28;20054;-75
2024/01/27 09:51:04;;;;;;;4.22;1.70;;;;;;;5.45;nan;101561.47;4980326;28;20539;-72
2024/01/27 09:53:29;;;;;;;8.40;1.70;;;;;;;5.49;nan;101556.75;4967193;28;20026;-74
2024/01/27 09:55:58;;;;;;;3.45;1.48;;;;;;;5.53;nan;101556.25;4976667;28;20027;-72
2024/01/27 09:58:27;;;;;;;4.15;1.38;;;;;;;5.53;nan;101547.59;4967745;28;20079;-71
2024/01/27 10:00:55;;;;;;;3.28;1.20;;;;;;;5.60;nan;101559.00;4981099;28;20039;-71
2024/01/27 10:03:24;;;;;;;8.23;1.60;;;;;;;5.64;nan;101554.28;4980885;28;20038;-73
2024/01/27 10:05:51;;;;;;;4.97;1.23;;;;;;;5.76;nan;101551.19;4980923;28;20059;-69
2024/01/27 10:08:17;;;;;;;6.97;1.65;;;;;;;5.72;nan;101555.13;4979868;28;20116;-69
2024/01/27 10:10:43;;;;;;;8.65;1.58;;;;;;;5.61;nan;101524.09;4981223;28;20081;-70
2024/01/27 10:13:13;;;;;;;6.80;1.73;;;;;;;5.95;nan;101568.34;4981270;28;20118;-72
2024/01/27 10:15:39;;;;;;;6.03;1.30;;;;;;;5.78;nan;101531.91;4979269;28;20030;-68
2024/01/27 10:18:06;;;;;;;8.40;2.38;;;;;;;6.09;nan;101568.66;4981226;28;20037;-74
2024/01/27 10:20:32;;;;;;;11.57;3.42;;;;;;;6.16;nan;101575.66;4968750;28;20022;-70
2024/01/27 10:23:18;;;;;;;8.20;1.90;;;;;;;6.07;nan;101560.16;4969660;28;20597;-70
2024/01/27 10:25:52;;;;;;;7.20;1.90;;;;;;;6.10;nan;101549.38;4978036;28;20511;-66
2024/01/27 10:28:18;;;;;;;6.68;1.92;;;;;;;6.27;nan;101566.63;4961975;28;20037;-71
2024/01/27 10:30:48;;;;;;;15.05;2.80;;;;;;;6.31;nan;101574.97;4979089;28;20041;-69
2024/01/27 10:33:13;;;;;;;;;;;;;;;6.36;nan;101588.38;4996118;28;20038;-67
2024/01/27 10:35:44;;;;;;;7.95;1.40;;;;;;;6.34;nan;101591.16;4980866;28;20497;-69
2024/01/27 10:38:10;;;;;;;11.93;2.50;;;;;;;6.33;nan;101580.88;4964059;28;20030;-71
2024/01/27 10:40:37;;;;;;;21.00;3.50;;;;;;;6.40;nan;101581.84;4964608;28;20042;-69
2024/01/27 10:43:14;;;;;;;9.45;2.10;;;;;;;6.41;nan;101583.44;4965622;28;20174;-68
2024/01/27 10:45:41;;;;;;;8.70;2.45;;;;;;;6.35;nan;101577.09;4982501;28;20026;-69
2024/01/27 10:48:10;;;;;;;13.77;2.05;;;;;;;6.47;nan;101585.41;4966011;28;20030;-69
2024/01/27 10:50:38;;;;;;;18.45;2.70;;;;;;;6.51;nan;101591.94;4977235;28;21487;-71
2024/01/27 10:53:24;;;;;;;14.25;2.72;;;;;;;6.51;nan;101593.72;4982407;28;20411;-71
2024/01/27 10:55:55;;;;;;;16.98;3.45;;;;;;;6.51;nan;101586.72;4982220;28;20053;-71
2024/01/27 10:58:23;;;;;;;5.90;1.48;;;;;;;6.64;nan;101595.81;4981351;28;20154;-73
2024/01/27 11:00:50;;;;;;;5.82;1.50;;;;;;;6.56;nan;101587.03;4981078;28;20073;-71
2024/01/27 11:03:21;;;;;;;5.82;1.30;;;;;;;6.60;nan;101593.53;4982287;28;20656;-71
2024/01/27 11:05:47;;;;;;;12.40;3.20;;;;;;;6.57;nan;101599.09;4978795;28;20073;-71
2024/01/27 11:08:13;;;;;;;9.98;2.92;;;;;;;6.61;nan;101602.22;4965831;28;20031;-72
2024/01/27 11:10:39;;;;;;;6.35;2.00;;;;;;;6.66;nan;101602.53;4964257;28;20030;-72
2024/01/27 11:13:05;;;;;;;14.10;2.45;;;;;;;6.60;nan;101593.53;4977746;28;20031;-71
2024/01/27 11:15:30;;;;;;;7.85;2.00;;;;;;;6.61;nan;101583.91;4968256;28;20404;-72
2024/01/27 11:18:04;;;;;;;4.88;1.38;;;;;;;6.73;nan;101587.78;4981841;28;20038;-72
2024/01/27 11:20:32;;;;;;;9.10;1.73;;;;;;;6.87;nan;101601.13;4979995;28;20027;-73
2024/01/27 11:23:14;;;;;;;6.07;1.40;;;;;;;6.78;nan;101579.41;4979500;28;20039;-72
2024/01/27 11:25:40;;;;;;;7.03;1.58;;;;;;;6.89;nan;101592.09;4982539;28;20568;-70
2024/01/27 11:28:16;;;;;;;4.20;1.33;;;;;;;6.95;nan;101606.34;4977810;28;20030;-71
2024/01/27 11:30:46;;;;;;;7.30;1.83;;;;;;;6.80;nan;101595.75;4979715;28;20030;-72
2024/01/27 11:33:12;;;;;;;8.93;1.40;;;;;;;6.90;nan;101612.06;4980813;28;20030;-72
2024/01/27 11:35:38;;;;;;;6.82;1.98;;;;;;;6.95;nan;101601.09;4966597;28;20030;-70
2024/01/27 11:38:03;;;;;;;8.23;1.60;;;;;;;6.86;nan;101584.59;4983019;28;20101;-72
2024/01/27 11:40:29;;;;;;;8.85;2.00;;;;;;;6.76;nan;101561.25;4981753;28;20480;-72
2024/01/27 11:43:00;;;;;;;11.43;1.85;;;;;;;6.98;nan;101592.88;4984333;28;20037;-72
2024/01/27 11:45:27;;;;;;;9.38;2.60;;;;;;;7.07;nan;101588.44;4982489;28;20974;-72
2024/01/27 11:47:53;;;;;;;7.75;2.13;;;;;;;7.02;nan;101587.13;4981887;28;20498;-72
2024/01/27 11:50:20;;;;;;;6.28;1.85;;;;;;;7.10;nan;101590.69;4977596;28;20038;-73
2024/01/27 11:52:46;;;;;;;6.07;1.42;;;;;;;7.19;nan;101595.72;4981427;28;20077;-71
2024/01/27 11:55:12;;;;;;;6.28;1.52;;;;;;;7.06;nan;101581.53;4982239;28;20538;-71
2024/01/27 11:57:38;;;;;;;6.60;1.33;;;;;;;6.85;nan;101546.31;4960454;28;20043;-72
2024/01/27 12:00:04;;;;;;;6.40;1.42;;;;;;;7.05;nan;101574.69;4975436;28;20488;-72
2024/01/27 12:02:29;;;;;;;9.38;1.38;;;;;;;7.20;nan;101588.66;4959736;28;20027;-72
2024/01/27 12:04:55;;;;;;;5.32;1.63;;;;;;;7.16;nan;101577.72;4960404;28;20046;-72
2024/01/27 12:07:22;;;;;;;6.22;1.58;;;;;;;7.02;nan;101560.94;4960978;28;20196;-73
2024/01/27 12:09:50;;;;;;;5.38;1.17;;;;;;;7.10;nan;101569.75;4958396;28;20030;-72